sensor_id;sensor_type;location;lat;lon;timestamp;pressure;altitude;pressure_sealevel;temperature;humidity
10474;BME280;5284;50.446;7.904;2024-03-06T00:03:34;98505.06;;;6.06;100.00
10474;BME280;5284;50.446;7.904;2024-03-06T00:08:37;98501.25;;;5.98;100.00
10474;BME280;5284;50.446;7.904;2024-03-06T00:13:40;98513.19;;;5.91;100.00
10474;BME280;5284;50.446;7.904;2024-03-06T00:18:44;98525.69;;;5.89;100.00
10474;BME280;5284;50.446;7.904;2024-03-06T00:23:48;98526.84;;;5.85;100.00
10474;BME280;5284;50.446;7.904;2024-03-06T00:28:51;98530.44;;;5.84;100.00
10474;BME280;5284;50.446;7.904;2024-03-06T00:33:56;98541.97;;;5.83;100.00
10474;BME280;5284;50.446;7.904;2024-03-06T00:39:01;98548.09;;;5.84;100.00
10474;BME280;5284;50.446;7.904;2024-03-06T00:44:06;98551.97;;;5.78;100.00
10474;BME280;5284;50.446;7.904;2024-03-06T00:49:10;98553.97;;;5.75;100.00
10474;BME280;5284;50.446;7.904;2024-03-06T00:54:14;98562.72;;;5.75;100.00
10474;BME280;5284;50.446;7.904;2024-03-06T00:59:19;98560.09;;;5.75;100.00
10474;BME280;5284;50.446;7.904;2024-03-06T01:04:23;98564.63;;;5.73;100.00
10474;BME280;5284;50.446;7.904;2024-03-06T01:09:26;98566.44;;;5.73;100.00
10474;BME280;5284;50.446;7.904;2024-03-06T01:14:30;98565.25;;;5.64;100.00
10474;BME280;5284;50.446;7.904;2024-03-06T01:19:39;98561.09;;;5.60;100.00
10474;BME280;5284;50.446;7.904;2024-03-06T01:24:42;98561.59;;;5.53;100.00
10474;BME280;5284;50.446;7.904;2024-03-06T01:29:45;98556.63;;;5.48;100.00
10474;BME280;5284;50.446;7.904;2024-03-06T01:34:51;98564.88;;;5.30;100.00
10474;BME280;5284;50.446;7.904;2024-03-06T01:39:54;98565.34;;;5.22;100.00
10474;BME280;5284;50.446;7.904;2024-03-06T01:44:57;98566.41;;;5.06;100.00
10474;BME280;5284;50.446;7.904;2024-03-06T01:50:03;98569.19;;;4.76;100.00
10474;BME280;5284;50.446;7.904;2024-03-06T01:55:08;98560.84;;;4.68;100.00
10474;BME280;5284;50.446;7.904;2024-03-06T02:00:13;98559.47;;;4.63;100.00
10474;BME280;5284;50.446;7.904;2024-03-06T02:05:19;98562.75;;;4.52;100.00
10474;BME280;5284;50.446;7.904;2024-03-06T02:10:23;98567.66;;;4.45;100.00
10474;BME280;5284;50.446;7.904;2024-03-06T02:15:26;98574.50;;;4.33;100.00
10474;BME280;5284;50.446;7.904;2024-03-06T02:20:30;98579.50;;;4.38;100.00
10474;BME280;5284;50.446;7.904;2024-03-06T02:25:33;98576.28;;;4.33;100.00
10474;BME280;5284;50.446;7.904;2024-03-06T02:30:38;98584.56;;;4.27;100.00
10474;BME280;5284;50.446;7.904;2024-03-06T02:35:42;98574.78;;;4.29;100.00
10474;BME280;5284;50.446;7.904;2024-03-06T02:40:46;98584.50;;;4.28;100.00
10474;BME280;5284;50.446;7.904;2024-03-06T02:45:50;98583.72;;;4.26;100.00
10474;BME280;5284;50.446;7.904;2024-03-06T02:50:55;98597.94;;;4.24;100.00
10474;BME280;5284;50.446;7.904;2024-03-06T02:55:58;98592.63;;;4.10;100.00
10474;BME280;5284;50.446;7.904;2024-03-06T03:01:01;98600.69;;;4.07;100.00
10474;BME280;5284;50.446;7.904;2024-03-06T03:06:05;98606.63;;;3.96;100.00
10474;BME280;5284;50.446;7.904;2024-03-06T03:11:09;98611.81;;;3.98;100.00
10474;BME280;5284;50.446;7.904;2024-03-06T03:16:17;98599.75;;;3.78;100.00
10474;BME280;5284;50.446;7.904;2024-03-06T03:21:21;98608.84;;;3.88;100.00
10474;BME280;5284;50.446;7.904;2024-03-06T03:26:25;98607.31;;;3.84;100.00
10474;BME280;5284;50.446;7.904;2024-03-06T03:31:29;98602.22;;;3.81;100.00
10474;BME280;5284;50.446;7.904;2024-03-06T03:36:33;98608.38;;;3.66;100.00
10474;BME280;5284;50.446;7.904;2024-03-06T03:41:36;98612.31;;;3.59;100.00
10474;BME280;5284;50.446;7.904;2024-03-06T03:46:39;98619.44;;;3.57;100.00
10474;BME280;5284;50.446;7.904;2024-03-06T03:51:44;98628.13;;;3.59;100.00
10474;BME280;5284;50.446;7.904;2024-03-06T03:56:47;98625.97;;;3.50;100.00
10474;BME280;5284;50.446;7.904;2024-03-06T04:01:50;98627.00;;;3.48;100.00
10474;BME280;5284;50.446;7.904;2024-03-06T04:06:54;98640.25;;;3.46;100.00
10474;BME280;5284;50.446;7.904;2024-03-06T04:12:01;98635.41;;;3.39;100.00
10474;BME280;5284;50.446;7.904;2024-03-06T04:17:04;98632.50;;;3.28;100.00
10474;BME280;5284;50.446;7.904;2024-03-06T04:22:09;98638.13;;;3.37;100.00
10474;BME280;5284;50.446;7.904;2024-03-06T04:27:12;98650.53;;;3.35;100.00
10474;BME280;5284;50.446;7.904;2024-03-06T04:32:15;98639.06;;;3.36;100.00
10474;BME280;5284;50.446;7.904;2024-03-06T04:37:20;98647.81;;;3.37;100.00
10474;BME280;5284;50.446;7.904;2024-03-06T04:42:23;98654.94;;;3.35;100.00
10474;BME280;5284;50.446;7.904;2024-03-06T04:47:26;98655.22;;;3.30;100.00
10474;BME280;5284;50.446;7.904;2024-03-06T04:52:32;98667.47;;;3.31;100.00
10474;BME280;5284;50.446;7.904;2024-03-06T04:57:36;98674.44;;;3.32;100.00
10474;BME280;5284;50.446;7.904;2024-03-06T05:02:41;98678.06;;;3.30;100.00
10474;BME280;5284;50.446;7.904;2024-03-06T05:08:03;98680.88;;;3.27;100.00
10474;BME280;5284;50.446;7.904;2024-03-06T05:13:23;98686.84;;;3.30;100.00
10474;BME280;5284;50.446;7.904;2024-03-06T05:18:45;98690.31;;;3.31;100.00
10474;BME280;5284;50.446;7.904;2024-03-06T05:24:07;98696.63;;;3.28;100.00
10474;BME280;5284;50.446;7.904;2024-03-06T05:29:28;98708.31;;;3.23;100.00
10474;BME280;5284;50.446;7.904;2024-03-06T05:34:49;98714.09;;;3.14;100.00
10474;BME280;5284;50.446;7.904;2024-03-06T05:40:12;98721.28;;;3.10;100.00
10474;BME280;5284;50.446;7.904;2024-03-06T05:45:33;98740.59;;;3.11;100.00
10474;BME280;5284;50.446;7.904;2024-03-06T05:50:53;98737.19;;;3.09;100.00
10474;BME280;5284;50.446;7.904;2024-03-06T05:56:16;98733.47;;;3.13;100.00
10474;BME280;5284;50.446;7.904;2024-03-06T06:01:37;98747.56;;;3.12;100.00
10474;BME280;5284;50.446;7.904;2024-03-06T06:06:41;98757.00;;;3.16;100.00
10474;BME280;5284;50.446;7.904;2024-03-06T06:11:46;98769.06;;;3.20;100.00
10474;BME280;5284;50.446;7.904;2024-03-06T06:16:49;98771.31;;;3.27;100.00
10474;BME280;5284;50.446;7.904;2024-03-06T06:21:54;98776.16;;;3.35;100.00
10474;BME280;5284;50.446;7.904;2024-03-06T06:27:00;98777.56;;;3.42;100.00
10474;BME280;5284;50.446;7.904;2024-03-06T06:32:03;98776.97;;;3.52;100.00
10474;BME280;5284;50.446;7.904;2024-03-06T06:37:07;98789.59;;;3.63;100.00
10474;BME280;5284;50.446;7.904;2024-03-06T06:42:12;98793.38;;;3.74;100.00
10474;BME280;5284;50.446;7.904;2024-03-06T06:47:16;98796.97;;;3.89;100.00
10474;BME280;5284;50.446;7.904;2024-03-06T06:52:19;98806.06;;;3.99;100.00
10474;BME280;5284;50.446;7.904;2024-03-06T06:57:24;98809.94;;;4.09;100.00
10474;BME280;5284;50.446;7.904;2024-03-06T07:02:27;98822.31;;;4.07;100.00
10474;BME280;5284;50.446;7.904;2024-03-06T07:07:30;98820.03;;;4.16;100.00
10474;BME280;5284;50.446;7.904;2024-03-06T07:12:35;98833.94;;;4.20;100.00
10474;BME280;5284;50.446;7.904;2024-03-06T07:17:38;98829.75;;;4.16;100.00
10474;BME280;5284;50.446;7.904;2024-03-06T07:22:41;98834.69;;;4.22;100.00
10474;BME280;5284;50.446;7.904;2024-03-06T07:27:46;98840.38;;;4.30;100.00
10474;BME280;5284;50.446;7.904;2024-03-06T07:32:49;98839.09;;;4.37;100.00
10474;BME280;5284;50.446;7.904;2024-03-06T07:37:52;98839.56;;;4.45;100.00
10474;BME280;5284;50.446;7.904;2024-03-06T07:42:58;98841.91;;;4.64;100.00
10474;BME280;5284;50.446;7.904;2024-03-06T07:48:01;98852.81;;;4.74;100.00
10474;BME280;5284;50.446;7.904;2024-03-06T07:53:04;98860.91;;;4.86;100.00
10474;BME280;5284;50.446;7.904;2024-03-06T07:58:10;98858.66;;;4.94;100.00
10474;BME280;5284;50.446;7.904;2024-03-06T08:03:13;98853.09;;;5.14;100.00
10474;BME280;5284;50.446;7.904;2024-03-06T08:08:16;98864.88;;;5.23;100.00
10474;BME280;5284;50.446;7.904;2024-03-06T08:13:20;98875.69;;;5.04;100.00
10474;BME280;5284;50.446;7.904;2024-03-06T08:18:23;98870.13;;;5.38;100.00
10474;BME280;5284;50.446;7.904;2024-03-06T08:23:26;98879.50;;;5.44;100.00
10474;BME280;5284;50.446;7.904;2024-03-06T08:28:31;98882.28;;;5.70;100.00
10474;BME280;5284;50.446;7.904;2024-03-06T08:33:35;98883.16;;;5.71;100.00
10474;BME280;5284;50.446;7.904;2024-03-06T08:38:39;98891.88;;;5.87;100.00
10474;BME280;5284;50.446;7.904;2024-03-06T08:43:44;98898.50;;;5.80;100.00
10474;BME280;5284;50.446;7.904;2024-03-06T08:48:48;98906.09;;;6.00;100.00
10474;BME280;5284;50.446;7.904;2024-03-06T08:53:53;98913.47;;;6.08;100.00
10474;BME280;5284;50.446;7.904;2024-03-06T08:58:57;98917.16;;;6.48;100.00
10474;BME280;5284;50.446;7.904;2024-03-06T09:04:02;98914.13;;;6.54;100.00
10474;BME280;5284;50.446;7.904;2024-03-06T09:09:06;98912.38;;;6.81;100.00
10474;BME280;5284;50.446;7.904;2024-03-06T09:14:12;98918.06;;;6.61;100.00
10474;BME280;5284;50.446;7.904;2024-03-06T09:19:16;98921.56;;;6.75;100.00
10474;BME280;5284;50.446;7.904;2024-03-06T09:24:20;98933.50;;;6.68;100.00
10474;BME280;5284;50.446;7.904;2024-03-06T09:29:26;98934.94;;;7.00;100.00
10474;BME280;5284;50.446;7.904;2024-03-06T09:34:29;98946.81;;;6.67;100.00
10474;BME280;5284;50.446;7.904;2024-03-06T09:39:32;98945.50;;;7.41;100.00
10474;BME280;5284;50.446;7.904;2024-03-06T09:44:39;98946.22;;;7.69;100.00
10474;BME280;5284;50.446;7.904;2024-03-06T09:49:42;98953.28;;;7.56;100.00
10474;BME280;5284;50.446;7.904;2024-03-06T09:54:47;98953.91;;;7.47;100.00
10474;BME280;5284;50.446;7.904;2024-03-06T09:59:52;98960.50;;;7.54;100.00
10474;BME280;5284;50.446;7.904;2024-03-06T10:04:55;98962.19;;;7.55;100.00
10474;BME280;5284;50.446;7.904;2024-03-06T10:10:00;98960.34;;;7.69;100.00
10474;BME280;5284;50.446;7.904;2024-03-06T10:15:05;98961.31;;;7.81;100.00
10474;BME280;5284;50.446;7.904;2024-03-06T10:20:19;98970.81;;;8.10;100.00
10474;BME280;5284;50.446;7.904;2024-03-06T10:25:23;98968.47;;;8.05;100.00
10474;BME280;5284;50.446;7.904;2024-03-06T10:30:30;98964.63;;;8.36;100.00
10474;BME280;5284;50.446;7.904;2024-03-06T10:35:34;98975.44;;;8.45;100.00
10474;BME280;5284;50.446;7.904;2024-03-06T10:40:42;98966.69;;;8.68;100.00
10474;BME280;5284;50.446;7.904;2024-03-06T10:45:48;98971.84;;;8.95;100.00
10474;BME280;5284;50.446;7.904;2024-03-06T10:50:52;98969.69;;;9.12;100.00
10474;BME280;5284;50.446;7.904;2024-03-06T10:55:56;98976.84;;;9.82;100.00
10474;BME280;5284;50.446;7.904;2024-03-06T11:01:03;98969.53;;;9.73;100.00
10474;BME280;5284;50.446;7.904;2024-03-06T11:06:07;98973.97;;;10.19;100.00
10474;BME280;5284;50.446;7.904;2024-03-06T11:11:22;98970.53;;;10.63;100.00
10474;BME280;5284;50.446;7.904;2024-03-06T11:16:31;98977.19;;;10.46;100.00
10474;BME280;5284;50.446;7.904;2024-03-06T11:21:45;98973.44;;;10.03;100.00
10474;BME280;5284;50.446;7.904;2024-03-06T11:26:54;98978.72;;;10.27;100.00
10474;BME280;5284;50.446;7.904;2024-03-06T11:32:06;98975.75;;;10.64;100.00
10474;BME280;5284;50.446;7.904;2024-03-06T11:37:20;98981.63;;;11.55;100.00
10474;BME280;5284;50.446;7.904;2024-03-06T11:42:32;98969.88;;;12.50;100.00
10474;BME280;5284;50.446;7.904;2024-03-06T11:47:58;98967.88;;;12.93;100.00
10474;BME280;5284;50.446;7.904;2024-03-06T11:53:02;98957.94;;;13.82;100.00
10474;BME280;5284;50.446;7.904;2024-03-06T11:58:09;98958.06;;;14.09;100.00
10474;BME280;5284;50.446;7.904;2024-03-06T12:03:15;98951.16;;;13.97;96.87
10474;BME280;5284;50.446;7.904;2024-03-06T12:08:19;98952.72;;;13.80;96.80
10474;BME280;5284;50.446;7.904;2024-03-06T12:13:22;98942.59;;;15.40;100.00
10474;BME280;5284;50.446;7.904;2024-03-06T12:18:27;98948.38;;;16.33;99.11
10474;BME280;5284;50.446;7.904;2024-03-06T12:23:34;98947.25;;;16.18;68.71
10474;BME280;5284;50.446;7.904;2024-03-06T12:28:37;98943.88;;;18.32;91.98
10474;BME280;5284;50.446;7.904;2024-03-06T12:33:42;98934.16;;;17.66;65.02
10474;BME280;5284;50.446;7.904;2024-03-06T12:38:54;98942.00;;;19.35;65.79
10474;BME280;5284;50.446;7.904;2024-03-06T12:43:58;98936.16;;;19.23;65.01
10474;BME280;5284;50.446;7.904;2024-03-06T12:49:03;98935.66;;;19.89;68.75
10474;BME280;5284;50.446;7.904;2024-03-06T12:54:07;98933.25;;;19.63;55.94
10474;BME280;5284;50.446;7.904;2024-03-06T12:59:11;98923.25;;;19.94;59.74
10474;BME280;5284;50.446;7.904;2024-03-06T13:04:17;98929.03;;;20.58;58.24
10474;BME280;5284;50.446;7.904;2024-03-06T13:09:20;98921.81;;;20.88;59.02
10474;BME280;5284;50.446;7.904;2024-03-06T13:14:25;98922.63;;;20.14;54.12
10474;BME280;5284;50.446;7.904;2024-03-06T13:19:30;98916.38;;;19.23;54.26
10474;BME280;5284;50.446;7.904;2024-03-06T13:24:33;98921.25;;;18.25;55.57
10474;BME280;5284;50.446;7.904;2024-03-06T13:29:39;98922.28;;;17.35;58.04
10474;BME280;5284;50.446;7.904;2024-03-06T13:34:44;98928.28;;;16.62;57.88
10474;BME280;5284;50.446;7.904;2024-03-06T13:39:47;98926.13;;;15.88;61.83
10474;BME280;5284;50.446;7.904;2024-03-06T13:44:50;98928.25;;;15.49;62.73
10474;BME280;5284;50.446;7.904;2024-03-06T13:49:54;98930.41;;;15.10;65.51
10474;BME280;5284;50.446;7.904;2024-03-06T13:54:58;98928.75;;;14.72;65.62
10474;BME280;5284;50.446;7.904;2024-03-06T14:00:03;98927.75;;;14.83;65.13
10474;BME280;5284;50.446;7.904;2024-03-06T14:05:15;98934.44;;;14.60;64.81
10474;BME280;5284;50.446;7.904;2024-03-06T14:10:19;98927.09;;;14.62;62.89
10474;BME280;5284;50.446;7.904;2024-03-06T14:15:23;98926.75;;;13.90;62.77
10474;BME280;5284;50.446;7.904;2024-03-06T14:20:29;98933.06;;;13.52;69.90
10474;BME280;5284;50.446;7.904;2024-03-06T14:25:32;98940.13;;;13.34;73.54
10474;BME280;5284;50.446;7.904;2024-03-06T14:30:36;98935.63;;;13.04;77.05
10474;BME280;5284;50.446;7.904;2024-03-06T14:35:42;98944.03;;;12.60;81.06
10474;BME280;5284;50.446;7.904;2024-03-06T14:40:47;98944.00;;;12.10;85.52
10474;BME280;5284;50.446;7.904;2024-03-06T14:45:51;98943.97;;;11.90;89.75
10474;BME280;5284;50.446;7.904;2024-03-06T14:50:56;98947.19;;;11.73;91.77
10474;BME280;5284;50.446;7.904;2024-03-06T14:55:59;98947.97;;;11.64;92.43
10474;BME280;5284;50.446;7.904;2024-03-06T15:01:02;98943.00;;;11.48;96.82
10474;BME280;5284;50.446;7.904;2024-03-06T15:06:07;98949.88;;;11.30;96.54
10474;BME280;5284;50.446;7.904;2024-03-06T15:11:10;98951.88;;;10.95;99.02
10474;BME280;5284;50.446;7.904;2024-03-06T15:16:14;98956.19;;;10.42;100.00
10474;BME280;5284;50.446;7.904;2024-03-06T15:21:18;98957.16;;;10.41;100.00
10474;BME280;5284;50.446;7.904;2024-03-06T15:26:22;98966.88;;;10.31;100.00
10474;BME280;5284;50.446;7.904;2024-03-06T15:31:25;98970.25;;;10.22;100.00
10474;BME280;5284;50.446;7.904;2024-03-06T15:36:30;98963.56;;;10.16;100.00
10474;BME280;5284;50.446;7.904;2024-03-06T15:41:33;98968.00;;;10.05;100.00
10474;BME280;5284;50.446;7.904;2024-03-06T15:46:38;98966.56;;;10.12;100.00
10474;BME280;5284;50.446;7.904;2024-03-06T15:51:50;98966.41;;;10.02;100.00
10474;BME280;5284;50.446;7.904;2024-03-06T15:56:54;98972.06;;;9.98;100.00
10474;BME280;5284;50.446;7.904;2024-03-06T16:01:59;98967.72;;;9.97;100.00
10474;BME280;5284;50.446;7.904;2024-03-06T16:07:04;98971.81;;;9.90;100.00
10474;BME280;5284;50.446;7.904;2024-03-06T16:12:08;98971.91;;;9.88;100.00
10474;BME280;5284;50.446;7.904;2024-03-06T16:17:11;98974.56;;;9.88;100.00
10474;BME280;5284;50.446;7.904;2024-03-06T16:22:15;98982.69;;;9.87;100.00
10474;BME280;5284;50.446;7.904;2024-03-06T16:27:19;98980.75;;;9.89;100.00
10474;BME280;5284;50.446;7.904;2024-03-06T16:32:22;98985.22;;;9.88;100.00
10474;BME280;5284;50.446;7.904;2024-03-06T16:37:26;98992.72;;;9.83;100.00
10474;BME280;5284;50.446;7.904;2024-03-06T16:42:30;98995.47;;;9.82;100.00
10474;BME280;5284;50.446;7.904;2024-03-06T16:47:33;99006.81;;;9.73;100.00
10474;BME280;5284;50.446;7.904;2024-03-06T16:52:40;99004.00;;;9.63;100.00
10474;BME280;5284;50.446;7.904;2024-03-06T16:57:43;99002.97;;;9.53;100.00
10474;BME280;5284;50.446;7.904;2024-03-06T17:02:47;99006.19;;;9.46;100.00
10474;BME280;5284;50.446;7.904;2024-03-06T17:07:51;99010.16;;;9.40;100.00
10474;BME280;5284;50.446;7.904;2024-03-06T17:12:54;99019.34;;;9.36;100.00
10474;BME280;5284;50.446;7.904;2024-03-06T17:17:59;99025.00;;;9.32;100.00
10474;BME280;5284;50.446;7.904;2024-03-06T17:23:05;99028.84;;;9.28;100.00
10474;BME280;5284;50.446;7.904;2024-03-06T17:28:09;99031.28;;;9.18;100.00
10474;BME280;5284;50.446;7.904;2024-03-06T17:33:13;99040.69;;;9.11;100.00
10474;BME280;5284;50.446;7.904;2024-03-06T17:38:19;99045.34;;;9.08;100.00
10474;BME280;5284;50.446;7.904;2024-03-06T17:43:25;99060.38;;;8.97;100.00
10474;BME280;5284;50.446;7.904;2024-03-06T17:48:28;99056.78;;;8.85;100.00
10474;BME280;5284;50.446;7.904;2024-03-06T17:53:32;99062.19;;;8.71;100.00
10474;BME280;5284;50.446;7.904;2024-03-06T17:58:35;99067.22;;;8.76;100.00
10474;BME280;5284;50.446;7.904;2024-03-06T18:03:39;99067.28;;;8.62;100.00
10474;BME280;5284;50.446;7.904;2024-03-06T18:08:44;99063.25;;;8.44;100.00
10474;BME280;5284;50.446;7.904;2024-03-06T18:13:48;99079.25;;;8.30;100.00
10474;BME280;5284;50.446;7.904;2024-03-06T18:18:51;99082.25;;;8.25;100.00
10474;BME280;5284;50.446;7.904;2024-03-06T18:23:56;99085.00;;;8.24;100.00
10474;BME280;5284;50.446;7.904;2024-03-06T18:29:00;99091.47;;;8.20;100.00
10474;BME280;5284;50.446;7.904;2024-03-06T18:34:04;99095.19;;;8.17;100.00
10474;BME280;5284;50.446;7.904;2024-03-06T18:39:09;99098.41;;;8.08;100.00
10474;BME280;5284;50.446;7.904;2024-03-06T18:44:14;99103.28;;;8.02;100.00
10474;BME280;5284;50.446;7.904;2024-03-06T18:49:17;99105.78;;;7.91;100.00
10474;BME280;5284;50.446;7.904;2024-03-06T18:54:25;99111.59;;;7.83;100.00
10474;BME280;5284;50.446;7.904;2024-03-06T18:59:28;99117.59;;;7.73;100.00
10474;BME280;5284;50.446;7.904;2024-03-06T19:04:33;99125.19;;;7.65;100.00
10474;BME280;5284;50.446;7.904;2024-03-06T19:09:49;99117.19;;;7.53;100.00
10474;BME280;5284;50.446;7.904;2024-03-06T19:14:52;99122.28;;;7.42;100.00
10474;BME280;5284;50.446;7.904;2024-03-06T19:19:56;99134.34;;;7.33;100.00
10474;BME280;5284;50.446;7.904;2024-03-06T19:25:02;99130.47;;;7.25;100.00
10474;BME280;5284;50.446;7.904;2024-03-06T19:30:08;99126.03;;;7.11;100.00
10474;BME280;5284;50.446;7.904;2024-03-06T19:35:11;99128.38;;;7.02;100.00
10474;BME280;5284;50.446;7.904;2024-03-06T19:40:17;99130.91;;;6.89;100.00
10474;BME280;5284;50.446;7.904;2024-03-06T19:45:20;99130.44;;;6.69;100.00
10474;BME280;5284;50.446;7.904;2024-03-06T19:50:23;99128.53;;;6.57;100.00
10474;BME280;5284;50.446;7.904;2024-03-06T19:55:28;99136.22;;;6.46;100.00
10474;BME280;5284;50.446;7.904;2024-03-06T20:00:33;99142.84;;;6.39;100.00
10474;BME280;5284;50.446;7.904;2024-03-06T20:05:37;99136.19;;;6.32;100.00
10474;BME280;5284;50.446;7.904;2024-03-06T20:10:41;99135.81;;;6.24;100.00
10474;BME280;5284;50.446;7.904;2024-03-06T20:15:44;99141.34;;;6.19;100.00
10474;BME280;5284;50.446;7.904;2024-03-06T20:20:47;99137.34;;;6.12;100.00
10474;BME280;5284;50.446;7.904;2024-03-06T20:25:52;99135.31;;;6.02;100.00
10474;BME280;5284;50.446;7.904;2024-03-06T20:30:59;99143.03;;;5.91;100.00
10474;BME280;5284;50.446;7.904;2024-03-06T20:36:03;99144.31;;;5.69;100.00
10474;BME280;5284;50.446;7.904;2024-03-06T20:41:08;99145.47;;;5.48;100.00
10474;BME280;5284;50.446;7.904;2024-03-06T20:46:15;99150.50;;;5.37;100.00
10474;BME280;5284;50.446;7.904;2024-03-06T20:51:20;99141.69;;;5.21;100.00
10474;BME280;5284;50.446;7.904;2024-03-06T20:56:25;99138.06;;;5.06;100.00
10474;BME280;5284;50.446;7.904;2024-03-06T21:01:29;99138.69;;;4.96;100.00
10474;BME280;5284;50.446;7.904;2024-03-06T21:06:33;99134.56;;;4.90;100.00
10474;BME280;5284;50.446;7.904;2024-03-06T21:11:38;99141.72;;;4.88;100.00
10474;BME280;5284;50.446;7.904;2024-03-06T21:16:42;99137.09;;;4.76;100.00
10474;BME280;5284;50.446;7.904;2024-03-06T21:21:46;99145.31;;;4.70;100.00
10474;BME280;5284;50.446;7.904;2024-03-06T21:26:50;99136.38;;;4.56;100.00
10474;BME280;5284;50.446;7.904;2024-03-06T21:31:53;99136.09;;;4.45;100.00
10474;BME280;5284;50.446;7.904;2024-03-06T21:36:57;99147.19;;;4.35;100.00
10474;BME280;5284;50.446;7.904;2024-03-06T21:42:02;99141.75;;;4.21;100.00
10474;BME280;5284;50.446;7.904;2024-03-06T21:47:05;99147.56;;;4.10;100.00
10474;BME280;5284;50.446;7.904;2024-03-06T21:52:08;99145.84;;;4.09;100.00
10474;BME280;5284;50.446;7.904;2024-03-06T21:57:15;99148.81;;;4.03;100.00
10474;BME280;5284;50.446;7.904;2024-03-06T22:02:21;99149.16;;;3.96;100.00
10474;BME280;5284;50.446;7.904;2024-03-06T22:07:24;99149.78;;;3.84;100.00
10474;BME280;5284;50.446;7.904;2024-03-06T22:12:30;99151.94;;;3.76;100.00
10474;BME280;5284;50.446;7.904;2024-03-06T22:17:33;99153.78;;;3.74;100.00
10474;BME280;5284;50.446;7.904;2024-03-06T22:22:36;99152.31;;;3.68;100.00
10474;BME280;5284;50.446;7.904;2024-03-06T22:27:42;99157.09;;;3.60;100.00
10474;BME280;5284;50.446;7.904;2024-03-06T22:32:45;99158.06;;;3.58;100.00
10474;BME280;5284;50.446;7.904;2024-03-06T22:37:48;99154.53;;;3.40;100.00
10474;BME280;5284;50.446;7.904;2024-03-06T22:42:53;99152.53;;;3.27;100.00
10474;BME280;5284;50.446;7.904;2024-03-06T22:47:57;99144.97;;;3.19;100.00
10474;BME280;5284;50.446;7.904;2024-03-06T22:53:00;99146.69;;;3.20;100.00
10474;BME280;5284;50.446;7.904;2024-03-06T22:58:07;99139.06;;;3.14;100.00
10474;BME280;5284;50.446;7.904;2024-03-06T23:03:11;99143.78;;;3.08;100.00
10474;BME280;5284;50.446;7.904;2024-03-06T23:08:15;99134.50;;;3.18;100.00
10474;BME280;5284;50.446;7.904;2024-03-06T23:13:19;99135.78;;;3.09;100.00
10474;BME280;5284;50.446;7.904;2024-03-06T23:18:22;99139.53;;;3.04;100.00
10474;BME280;5284;50.446;7.904;2024-03-06T23:23:27;99128.09;;;3.05;100.00
10474;BME280;5284;50.446;7.904;2024-03-06T23:28:31;99132.00;;;2.97;100.00
10474;BME280;5284;50.446;7.904;2024-03-06T23:33:35;99130.84;;;2.84;100.00
10474;BME280;5284;50.446;7.904;2024-03-06T23:38:38;99133.84;;;2.76;100.00
10474;BME280;5284;50.446;7.904;2024-03-06T23:43:42;99128.81;;;2.70;100.00
10474;BME280;5284;50.446;7.904;2024-03-06T23:48:47;99129.03;;;2.66;100.00
10474;BME280;5284;50.446;7.904;2024-03-06T23:53:50;99135.28;;;2.63;100.00
10474;BME280;5284;50.446;7.904;2024-03-06T23:58:55;99132.88;;;2.59;100.00
